createdAt,value
2022-12-15T00:00:10.310Z,-5.71
2022-12-15T00:01:09.376Z,-5.74
2022-12-15T00:02:09.365Z,-5.76
2022-12-15T00:03:09.423Z,-5.81
2022-12-15T00:04:09.249Z,-5.79
2022-12-15T00:05:09.273Z,-5.81
2022-12-15T00:06:09.237Z,-5.81
2022-12-15T00:07:09.232Z,-5.84
2022-12-15T00:08:09.239Z,-5.81
2022-12-15T00:09:14.021Z,-5.79
2022-12-15T00:10:10.186Z,-5.79
2022-12-15T00:11:09.179Z,-5.82
2022-12-15T00:12:09.169Z,-5.85
2022-12-15T00:13:09.179Z,-5.86
2022-12-15T00:14:09.151Z,-5.86
2022-12-15T00:15:09.165Z,-5.86
2022-12-15T00:16:09.143Z,-5.90
2022-12-15T00:17:09.108Z,-5.93
2022-12-15T00:18:09.123Z,-5.93
2022-12-15T00:19:09.082Z,-5.90
2022-12-15T00:20:10.061Z,-5.86
2022-12-15T00:21:09.071Z,-5.85
2022-12-15T00:22:09.072Z,-5.79
2022-12-15T00:23:09.051Z,-5.76
2022-12-15T00:24:09.039Z,-5.75
2022-12-15T00:25:09.022Z,-5.75
2022-12-15T00:26:09.009Z,-5.75
2022-12-15T00:27:09.059Z,-5.76
2022-12-15T00:28:08.983Z,-5.74
2022-12-15T00:29:08.982Z,-5.72
2022-12-15T00:30:08.971Z,-5.67
2022-12-15T00:31:08.977Z,-5.63
2022-12-15T00:32:08.950Z,-5.63
2022-12-15T00:33:08.971Z,-5.64
2022-12-15T00:34:08.922Z,-5.66
2022-12-15T00:35:08.916Z,-5.71
2022-12-15T00:36:08.914Z,-5.72
2022-12-15T00:37:08.890Z,-5.74
2022-12-15T00:38:08.911Z,-5.78
2022-12-15T00:39:08.890Z,-5.78
2022-12-15T00:40:09.837Z,-5.75
2022-12-15T00:41:08.856Z,-5.75
2022-12-15T00:42:08.872Z,-5.75
2022-12-15T00:43:08.824Z,-5.78
2022-12-15T00:44:09.764Z,-5.79
2022-12-15T00:45:08.814Z,-5.81
2022-12-15T00:46:08.841Z,-5.79
2022-12-15T00:47:08.810Z,-5.79
2022-12-15T00:48:08.793Z,-5.79
2022-12-15T00:49:08.814Z,-5.84
2022-12-15T00:50:09.725Z,-5.86
2022-12-15T00:51:08.744Z,-5.86
2022-12-15T00:52:08.735Z,-5.86
2022-12-15T00:53:08.721Z,-5.82
2022-12-15T00:54:11.927Z,-5.79
2022-12-15T00:55:09.727Z,-5.78
2022-12-15T00:56:08.694Z,-5.76
2022-12-15T00:57:08.684Z,-5.79
2022-12-15T00:58:08.726Z,-5.84
2022-12-15T00:59:08.648Z,-5.86
2022-12-15T01:00:08.663Z,-5.89
2022-12-15T01:01:08.643Z,-5.89
2022-12-15T01:02:08.755Z,-5.90
2022-12-15T01:03:08.748Z,-5.89
2022-12-15T01:04:08.685Z,-5.95
2022-12-15T01:05:08.605Z,-5.97
2022-12-15T01:06:08.603Z,-5.97
2022-12-15T01:07:08.587Z,-5.99
2022-12-15T01:08:08.562Z,-5.99
2022-12-15T01:09:08.597Z,-5.99
2022-12-15T01:10:08.554Z,-5.99
2022-12-15T01:11:08.645Z,-5.96
2022-12-15T01:12:08.567Z,-5.96
2022-12-15T01:13:08.805Z,-5.96
2022-12-15T01:14:08.496Z,-5.97
2022-12-15T01:15:08.552Z,-5.99
2022-12-15T01:16:08.566Z,-5.97
2022-12-15T01:17:08.544Z,-5.93
2022-12-15T01:18:08.575Z,-5.92
2022-12-15T01:19:08.505Z,-5.95
2022-12-15T01:20:08.436Z,-5.97
2022-12-15T01:21:08.420Z,-5.96
2022-12-15T01:22:08.456Z,-5.97
2022-12-15T01:23:08.396Z,-5.99
2022-12-15T01:24:08.427Z,-5.99
2022-12-15T01:25:08.413Z,-5.97
2022-12-15T01:26:08.408Z,-5.97
2022-12-15T01:27:08.367Z,-5.96
2022-12-15T01:28:08.361Z,-5.95
2022-12-15T01:29:08.346Z,-5.95
2022-12-15T01:30:08.346Z,-5.93
2022-12-15T01:31:08.492Z,-5.95
2022-12-15T01:32:08.339Z,-5.95
2022-12-15T01:33:08.327Z,-5.92
2022-12-15T01:34:08.303Z,-5.90
2022-12-15T01:35:08.277Z,-5.89
2022-12-15T01:36:08.252Z,-5.86
2022-12-15T01:37:08.241Z,-5.84
2022-12-15T01:38:08.277Z,-5.84
2022-12-15T01:39:08.229Z,-5.85
2022-12-15T01:40:08.234Z,-5.84
2022-12-15T01:41:08.197Z,-5.84
2022-12-15T01:42:08.228Z,-5.84
2022-12-15T01:43:08.178Z,-5.85
2022-12-15T01:44:08.166Z,-5.85
2022-12-15T01:45:08.158Z,-5.86
2022-12-15T01:46:08.152Z,-5.86
2022-12-15T01:47:08.195Z,-5.86
2022-12-15T01:48:08.158Z,-5.86
2022-12-15T01:49:08.130Z,-5.85
2022-12-15T01:50:08.108Z,-5.82
2022-12-15T01:51:08.112Z,-5.82
2022-12-15T01:52:08.095Z,-5.82
2022-12-15T01:53:08.087Z,-5.86
2022-12-15T01:54:08.065Z,-5.86
2022-12-15T01:55:08.030Z,-5.85
2022-12-15T01:56:08.028Z,-5.85
2022-12-15T01:57:08.061Z,-5.82
2022-12-15T01:58:08.049Z,-5.84
2022-12-15T01:59:08.006Z,-5.81
2022-12-15T02:00:08.989Z,-5.82
2022-12-15T02:01:08.051Z,-5.81
2022-12-15T02:02:08.109Z,-5.84
2022-12-15T02:03:08.042Z,-5.84
2022-12-15T02:04:07.972Z,-5.85
2022-12-15T02:05:07.996Z,-5.85
2022-12-15T02:06:07.936Z,-5.86
2022-12-15T02:07:07.951Z,-5.86
2022-12-15T02:08:07.965Z,-5.90
2022-12-15T02:09:07.900Z,-5.92
2022-12-15T02:10:07.881Z,-5.92
2022-12-15T02:11:07.865Z,-5.93
2022-12-15T02:12:07.884Z,-5.93
2022-12-15T02:13:07.848Z,-5.92
2022-12-15T02:14:07.842Z,-5.92
2022-12-15T02:15:07.851Z,-5.86
2022-12-15T02:16:07.876Z,-5.84
2022-12-15T02:17:07.960Z,-5.82
2022-12-15T02:18:07.855Z,-5.84
2022-12-15T02:19:07.780Z,-5.85
2022-12-15T02:20:07.805Z,-5.85
2022-12-15T02:21:07.763Z,-5.86
2022-12-15T02:22:07.948Z,-5.89
2022-12-15T02:23:07.796Z,-5.85
2022-12-15T02:24:07.833Z,-5.85
2022-12-15T02:25:07.738Z,-5.85
2022-12-15T02:26:07.749Z,-5.84
2022-12-15T02:27:07.704Z,-5.85
2022-12-15T02:28:07.709Z,-5.84
2022-12-15T02:29:07.692Z,-5.79
2022-12-15T02:30:07.695Z,-5.76
2022-12-15T02:31:07.701Z,-5.76
2022-12-15T02:32:07.697Z,-5.75
2022-12-15T02:33:07.657Z,-5.79
2022-12-15T02:34:07.663Z,-5.79
2022-12-15T02:35:07.612Z,-5.79
2022-12-15T02:36:07.604Z,-5.82
2022-12-15T02:37:07.593Z,-5.84
2022-12-15T02:38:07.594Z,-5.86
2022-12-15T02:39:07.564Z,-5.89
2022-12-15T02:40:07.602Z,-5.90
2022-12-15T02:41:07.544Z,-5.92
2022-12-15T02:42:08.518Z,-5.90
2022-12-15T02:43:07.525Z,-5.93
2022-12-15T02:44:07.515Z,-5.97
2022-12-15T02:45:07.534Z,-5.96
2022-12-15T02:46:07.582Z,-5.97
2022-12-15T02:47:07.473Z,-5.97
2022-12-15T02:48:07.487Z,-5.99
2022-12-15T02:49:07.459Z,-6.00
2022-12-15T02:50:07.495Z,-6.05
2022-12-15T02:51:07.442Z,-6.08
2022-12-15T02:52:07.455Z,-6.08
2022-12-15T02:53:07.416Z,-6.08
2022-12-15T02:54:07.451Z,-6.08
2022-12-15T02:55:07.393Z,-6.08
2022-12-15T02:56:07.405Z,-6.07
2022-12-15T02:57:07.374Z,-6.07
2022-12-15T02:58:07.408Z,-6.08
2022-12-15T02:59:07.346Z,-6.07
2022-12-15T03:00:07.373Z,-6.05
2022-12-15T03:01:07.389Z,-6.03
2022-12-15T03:02:07.513Z,-6.03
2022-12-15T03:03:07.425Z,-6.02
2022-12-15T03:04:07.353Z,-6.00
2022-12-15T03:05:07.301Z,-6.00
2022-12-15T03:06:07.278Z,-5.99
2022-12-15T03:07:07.300Z,-5.96
2022-12-15T03:08:07.256Z,-5.92
2022-12-15T03:09:07.259Z,-5.92
2022-12-15T03:10:07.272Z,-5.90
2022-12-15T03:11:07.226Z,-5.86
2022-12-15T03:12:07.232Z,-5.89
2022-12-15T03:13:07.232Z,-5.90
2022-12-15T03:14:07.190Z,-5.90
2022-12-15T03:15:07.181Z,-5.86
2022-12-15T03:16:07.267Z,-5.84
2022-12-15T03:17:07.167Z,-5.82
2022-12-15T03:18:07.147Z,-5.81
2022-12-15T03:19:07.172Z,-5.79
2022-12-15T03:20:07.136Z,-5.81
2022-12-15T03:21:07.128Z,-5.82
2022-12-15T03:22:07.117Z,-5.79
2022-12-15T03:23:07.119Z,-5.79
2022-12-15T03:24:07.113Z,-5.78
2022-12-15T03:25:07.103Z,-5.75
2022-12-15T03:26:07.098Z,-5.74
2022-12-15T03:27:07.059Z,-5.71
2022-12-15T03:28:07.068Z,-5.71
2022-12-15T03:29:07.041Z,-5.67
2022-12-15T03:30:07.038Z,-5.67
2022-12-15T03:31:07.008Z,-5.63
2022-12-15T03:32:07.082Z,-5.63
2022-12-15T03:33:07.010Z,-5.61
2022-12-15T03:34:06.990Z,-5.61
2022-12-15T03:35:07.011Z,-5.60
2022-12-15T03:36:06.992Z,-5.60
2022-12-15T03:37:06.945Z,-5.60
2022-12-15T03:38:07.002Z,-5.60
2022-12-15T03:39:06.935Z,-5.61
2022-12-15T03:40:06.923Z,-5.63
2022-12-15T03:41:06.928Z,-5.61
2022-12-15T03:42:06.917Z,-5.61
2022-12-15T03:43:06.927Z,-5.60
2022-12-15T03:44:06.891Z,-5.61
2022-12-15T03:45:06.867Z,-5.58
2022-12-15T03:46:06.949Z,-5.60
2022-12-15T03:47:06.860Z,-5.60
2022-12-15T03:48:06.842Z,-5.61
2022-12-15T03:49:06.831Z,-5.61
2022-12-15T03:50:06.810Z,-5.64
2022-12-15T03:51:06.793Z,-5.63
2022-12-15T03:52:06.799Z,-5.63
2022-12-15T03:53:06.785Z,-5.63
2022-12-15T03:54:06.796Z,-5.63
2022-12-15T03:55:06.750Z,-5.61
2022-12-15T03:56:06.744Z,-5.63
2022-12-15T03:57:06.742Z,-5.64
2022-12-15T03:58:06.744Z,-5.67
2022-12-15T03:59:06.720Z,-5.64
2022-12-15T04:00:06.706Z,-5.67
2022-12-15T04:01:06.720Z,-5.66
2022-12-15T04:02:06.804Z,-5.66
2022-12-15T04:03:06.817Z,-5.66
2022-12-15T04:04:06.696Z,-5.67
2022-12-15T04:05:06.694Z,-5.68
2022-12-15T04:06:06.691Z,-5.66
2022-12-15T04:07:06.632Z,-5.66
2022-12-15T04:08:06.623Z,-5.61
2022-12-15T04:09:06.597Z,-5.58
2022-12-15T04:10:06.622Z,-5.57
2022-12-15T04:11:06.575Z,-5.54
2022-12-15T04:12:06.595Z,-5.54
2022-12-15T04:13:06.553Z,-5.54
2022-12-15T04:14:06.590Z,-5.54
2022-12-15T04:15:06.534Z,-5.56
2022-12-15T04:16:06.542Z,-5.56
2022-12-15T04:17:06.539Z,-5.57
2022-12-15T04:18:06.514Z,-5.57
2022-12-15T04:19:06.493Z,-5.56
2022-12-15T04:20:06.522Z,-5.57
2022-12-15T04:21:06.519Z,-5.58
2022-12-15T04:22:06.463Z,-5.57
2022-12-15T04:23:06.448Z,-5.58
2022-12-15T04:24:06.444Z,-5.58
2022-12-15T04:25:06.426Z,-5.61
2022-12-15T04:26:06.446Z,-5.60
2022-12-15T04:27:06.434Z,-5.61
2022-12-15T04:28:06.398Z,-5.63
2022-12-15T04:29:06.392Z,-5.63
2022-12-15T04:30:06.401Z,-5.64
2022-12-15T04:31:06.436Z,-5.64
2022-12-15T04:32:06.363Z,-5.64
2022-12-15T04:33:06.343Z,-5.64
2022-12-15T04:34:06.336Z,-5.66
2022-12-15T04:35:06.330Z,-5.67
2022-12-15T04:36:06.334Z,-5.67
2022-12-15T04:37:06.323Z,-5.67
2022-12-15T04:38:06.294Z,-5.68
2022-12-15T04:39:06.297Z,-5.68
2022-12-15T04:40:06.277Z,-5.71
2022-12-15T04:41:06.278Z,-5.68
2022-12-15T04:42:06.296Z,-5.71
2022-12-15T04:43:06.234Z,-5.68
2022-12-15T04:44:06.248Z,-5.68
2022-12-15T04:45:06.231Z,-5.71
2022-12-15T04:46:06.266Z,-5.71
2022-12-15T04:47:06.212Z,-5.71
2022-12-15T04:48:06.229Z,-5.71
2022-12-15T04:49:06.176Z,-5.68
2022-12-15T04:50:06.155Z,-5.67
2022-12-15T04:51:06.165Z,-5.64
2022-12-15T04:52:06.145Z,-5.63
2022-12-15T04:53:06.134Z,-5.61
2022-12-15T04:54:06.165Z,-5.63
2022-12-15T04:55:06.111Z,-5.61
2022-12-15T04:56:06.096Z,-5.61
2022-12-15T04:57:06.085Z,-5.60
2022-12-15T04:58:06.527Z,-5.61
2022-12-15T04:59:06.069Z,-5.61
2022-12-15T05:00:06.376Z,-5.61
2022-12-15T05:01:06.080Z,-5.63
2022-12-15T05:02:06.248Z,-5.61
2022-12-15T05:03:06.021Z,-5.64
2022-12-15T05:04:06.040Z,-5.63
2022-12-15T05:05:06.029Z,-5.63
2022-12-15T05:06:06.013Z,-5.66
2022-12-15T05:07:06.003Z,-5.66
2022-12-15T05:08:05.971Z,-5.67
2022-12-15T05:09:05.984Z,-5.68
2022-12-15T05:10:10.993Z,-5.71
2022-12-15T05:11:06.956Z,-5.72
2022-12-15T05:12:05.947Z,-5.72
2022-12-15T05:13:06.621Z,-5.74
2022-12-15T05:14:05.910Z,-5.72
2022-12-15T05:15:05.900Z,-5.72
2022-12-15T05:16:05.967Z,-5.72
2022-12-15T05:17:05.922Z,-5.72
2022-12-15T05:18:06.367Z,-5.71
2022-12-15T05:19:05.863Z,-5.71
2022-12-15T05:20:06.047Z,-5.71
2022-12-15T05:21:05.860Z,-5.67
2022-12-15T05:22:05.995Z,-5.66
2022-12-15T05:23:05.849Z,-5.66
2022-12-15T05:24:05.832Z,-5.66
2022-12-15T05:25:05.798Z,-5.66
2022-12-15T05:26:05.783Z,-5.64
2022-12-15T05:27:05.760Z,-5.66
2022-12-15T05:28:05.760Z,-5.68
2022-12-15T05:29:05.755Z,-5.68
2022-12-15T05:30:05.753Z,-5.67
2022-12-15T05:31:06.133Z,-5.64
2022-12-15T05:32:06.118Z,-5.64
2022-12-15T05:33:05.744Z,-5.60
2022-12-15T05:34:06.431Z,-5.60
2022-12-15T05:35:05.730Z,-5.60
2022-12-15T05:36:05.793Z,-5.61
2022-12-15T05:37:05.702Z,-5.58
2022-12-15T05:38:05.654Z,-5.57
2022-12-15T05:39:05.676Z,-5.54
2022-12-15T05:40:06.017Z,-5.54
2022-12-15T05:41:05.657Z,-5.53
2022-12-15T05:42:06.031Z,-5.49
2022-12-15T05:43:05.590Z,-5.49
2022-12-15T05:44:05.577Z,-5.43
2022-12-15T05:45:09.790Z,-5.42
2022-12-15T05:46:05.622Z,-5.39
2022-12-15T05:47:05.620Z,-5.40
2022-12-15T05:48:05.736Z,-5.39
2022-12-15T05:49:05.525Z,-5.36
2022-12-15T05:50:05.676Z,-5.33
2022-12-15T05:51:05.537Z,-5.33
2022-12-15T05:52:05.513Z,-5.31
2022-12-15T05:53:06.332Z,-5.29
2022-12-15T05:54:05.472Z,-5.29
2022-12-15T05:55:05.526Z,-5.27
2022-12-15T05:56:05.500Z,-5.27
2022-12-15T05:57:06.906Z,-5.25
2022-12-15T05:58:06.390Z,-5.24
2022-12-15T05:59:05.428Z,-5.25
2022-12-15T06:00:05.463Z,-5.22
2022-12-15T06:01:05.425Z,-5.24
2022-12-15T06:02:05.573Z,-5.21
2022-12-15T06:03:05.456Z,-5.17
2022-12-15T06:04:05.353Z,-5.14
2022-12-15T06:05:05.408Z,-5.10
2022-12-15T06:06:05.353Z,-5.09
2022-12-15T06:07:05.371Z,-5.06
2022-12-15T06:08:05.401Z,-5.06
2022-12-15T06:09:05.311Z,-5.05
2022-12-15T06:10:05.297Z,-5.03
2022-12-15T06:11:05.304Z,-5.03
2022-12-15T06:12:05.314Z,-5.02
2022-12-15T06:13:06.193Z,-4.99
2022-12-15T06:14:05.398Z,-4.98
2022-12-15T06:15:06.395Z,-4.96
2022-12-15T06:16:05.472Z,-4.95
2022-12-15T06:17:06.683Z,-4.91
2022-12-15T06:18:05.215Z,-4.91
2022-12-15T06:19:05.208Z,-4.89
2022-12-15T06:20:05.236Z,-4.88
2022-12-15T06:21:05.179Z,-4.91
2022-12-15T06:22:06.464Z,-4.89
2022-12-15T06:23:05.188Z,-4.89
2022-12-15T06:24:05.144Z,-4.89
2022-12-15T06:25:05.164Z,-4.87
2022-12-15T06:26:05.109Z,-4.85
2022-12-15T06:27:05.115Z,-4.87
2022-12-15T06:28:05.089Z,-4.87
2022-12-15T06:29:05.426Z,-4.88
2022-12-15T06:30:05.066Z,-4.88
2022-12-15T06:31:05.152Z,-4.87
2022-12-15T06:32:05.443Z,-4.87
2022-12-15T06:33:05.420Z,-4.87
2022-12-15T06:34:05.025Z,-4.84
2022-12-15T06:35:05.119Z,-4.82
2022-12-15T06:36:05.026Z,-4.79
2022-12-15T06:37:05.006Z,-4.78
2022-12-15T06:38:05.034Z,-4.77
2022-12-15T06:39:04.973Z,-4.77
2022-12-15T06:40:05.388Z,-4.77
2022-12-15T06:41:04.954Z,-4.77
2022-12-15T06:42:04.944Z,-4.75
2022-12-15T06:43:04.967Z,-4.71
2022-12-15T06:44:04.901Z,-4.71
2022-12-15T06:45:04.907Z,-4.69
2022-12-15T06:46:04.899Z,-4.67
2022-12-15T06:47:05.217Z,-4.70
2022-12-15T06:48:04.875Z,-4.69
2022-12-15T06:49:06.820Z,-4.70
2022-12-15T06:50:04.838Z,-4.67
2022-12-15T06:51:04.849Z,-4.66
2022-12-15T06:52:04.906Z,-4.64
2022-12-15T06:53:04.814Z,-4.63
2022-12-15T06:54:05.550Z,-4.61
2022-12-15T06:55:04.797Z,-4.60
2022-12-15T06:56:04.777Z,-4.57
2022-12-15T06:57:04.797Z,-4.57
2022-12-15T06:58:04.786Z,-4.57
2022-12-15T06:59:04.771Z,-4.53
2022-12-15T07:00:05.398Z,-4.52
2022-12-15T07:01:04.729Z,-4.53
2022-12-15T07:02:04.873Z,-4.52
2022-12-15T07:03:04.968Z,-4.50
2022-12-15T07:04:04.946Z,-4.48
2022-12-15T07:05:05.451Z,-4.49
2022-12-15T07:06:04.702Z,-4.46
2022-12-15T07:07:04.650Z,-4.45
2022-12-15T07:08:04.658Z,-4.43
2022-12-15T07:09:04.639Z,-4.41
2022-12-15T07:10:04.611Z,-4.42
2022-12-15T07:11:04.620Z,-4.42
2022-12-15T07:12:05.534Z,-4.42
2022-12-15T07:13:04.592Z,-4.42
2022-12-15T07:14:04.585Z,-4.41
2022-12-15T07:15:04.571Z,-4.41
2022-12-15T07:16:04.618Z,-4.41
2022-12-15T07:17:05.407Z,-4.41
2022-12-15T07:18:04.533Z,-4.39
2022-12-15T07:19:04.527Z,-4.35
2022-12-15T07:20:04.504Z,-4.38
2022-12-15T07:21:04.505Z,-4.38
2022-12-15T07:22:04.520Z,-4.35
2022-12-15T07:23:05.936Z,-4.38
2022-12-15T07:24:04.785Z,-4.38
2022-12-15T07:25:04.450Z,-4.35
2022-12-15T07:26:11.147Z,-4.34
2022-12-15T07:27:05.451Z,-4.38
2022-12-15T07:28:04.440Z,-4.38
2022-12-15T07:29:04.435Z,-4.42
2022-12-15T07:30:04.394Z,-4.43
2022-12-15T07:31:04.420Z,-4.48
2022-12-15T07:32:04.465Z,-4.48
2022-12-15T07:33:04.362Z,-4.49
2022-12-15T07:34:04.727Z,-4.49
2022-12-15T07:35:04.332Z,-4.52
2022-12-15T07:36:06.316Z,-4.50
2022-12-15T07:37:04.313Z,-4.52
2022-12-15T07:38:05.285Z,-4.50
2022-12-15T07:39:04.312Z,-4.49
2022-12-15T07:40:04.285Z,-4.50
2022-12-15T07:41:04.281Z,-4.52
2022-12-15T07:42:04.272Z,-4.52
2022-12-15T07:43:04.254Z,-4.53
2022-12-15T07:44:05.236Z,-4.53
2022-12-15T07:45:04.368Z,-4.55
2022-12-15T07:46:04.263Z,-4.59
2022-12-15T07:47:04.226Z,-4.59
2022-12-15T07:48:05.643Z,-4.60
2022-12-15T07:49:04.184Z,-4.63
2022-12-15T07:50:04.972Z,-4.63
2022-12-15T07:51:09.561Z,-4.64
2022-12-15T07:52:05.327Z,-4.63
2022-12-15T07:53:04.173Z,-4.66
2022-12-15T07:54:04.114Z,-4.66
2022-12-15T07:55:04.133Z,-4.66
2022-12-15T07:56:09.040Z,-4.67
2022-12-15T07:57:05.090Z,-4.66
2022-12-15T07:58:04.066Z,-4.67
2022-12-15T07:59:04.073Z,-4.67
2022-12-15T08:00:05.038Z,-4.66
2022-12-15T08:01:04.086Z,-4.63
2022-12-15T08:02:04.247Z,-4.63
2022-12-15T08:03:04.146Z,-4.63
2022-12-15T08:04:04.088Z,-4.66
2022-12-15T08:05:03.996Z,-4.66
2022-12-15T08:06:04.496Z,-4.64
2022-12-15T08:07:03.977Z,-4.66
2022-12-15T08:08:03.988Z,-4.66
2022-12-15T08:09:03.983Z,-4.66
2022-12-15T08:10:03.935Z,-4.66
2022-12-15T08:11:03.949Z,-4.64
2022-12-15T08:12:03.929Z,-4.63
2022-12-15T08:13:03.961Z,-4.61
2022-12-15T08:14:06.187Z,-4.61
2022-12-15T08:15:04.901Z,-4.59
2022-12-15T08:16:03.946Z,-4.57
2022-12-15T08:17:03.932Z,-4.57
2022-12-15T08:18:03.874Z,-4.59
2022-12-15T08:19:03.856Z,-4.57
2022-12-15T08:20:09.654Z,-4.55
2022-12-15T08:21:04.834Z,-4.57
2022-12-15T08:22:03.817Z,-4.52
2022-12-15T08:23:03.811Z,-4.50
2022-12-15T08:24:04.780Z,-4.49
2022-12-15T08:25:03.776Z,-4.46
2022-12-15T08:26:03.793Z,-4.43
2022-12-15T08:27:04.711Z,-4.45
2022-12-15T08:28:03.742Z,-4.45
2022-12-15T08:29:31.742Z,-4.45
2022-12-15T08:30:04.759Z,-4.43
2022-12-15T08:31:03.737Z,-4.45
2022-12-15T08:32:03.802Z,-4.42
2022-12-15T08:33:03.722Z,-4.42
2022-12-15T08:34:03.695Z,-4.38
2022-12-15T08:35:03.700Z,-4.35
2022-12-15T08:36:03.653Z,-4.34
2022-12-15T08:37:03.634Z,-4.32
2022-12-15T08:38:05.590Z,-4.30
2022-12-15T08:39:03.620Z,-4.28
2022-12-15T08:40:03.841Z,-4.27
2022-12-15T08:41:04.069Z,-4.25
2022-12-15T08:42:03.592Z,-4.24
2022-12-15T08:43:03.594Z,-4.24
2022-12-15T08:44:03.564Z,-4.22
2022-12-15T08:45:03.560Z,-4.21
2022-12-15T08:46:03.632Z,-4.17
2022-12-15T08:47:03.540Z,-4.17
2022-12-15T08:48:03.515Z,-4.16
2022-12-15T08:49:03.507Z,-4.16
2022-12-15T08:50:03.499Z,-4.14
2022-12-15T08:51:03.482Z,-4.13
2022-12-15T08:52:03.515Z,-4.09
2022-12-15T08:53:29.672Z,-4.07
2022-12-15T08:54:04.473Z,-4.07
2022-12-15T08:55:03.443Z,-4.04
2022-12-15T08:56:03.439Z,-4.06
2022-12-15T08:57:03.438Z,-4.03
2022-12-15T08:58:03.452Z,-4.02
2022-12-15T08:59:03.407Z,-3.99
2022-12-15T09:00:03.411Z,-3.98
2022-12-15T09:01:03.407Z,-3.96
2022-12-15T09:02:03.536Z,-3.92
2022-12-15T09:03:03.350Z,-3.91
2022-12-15T09:04:03.401Z,-3.89
2022-12-15T09:05:03.351Z,-3.86
2022-12-15T09:06:03.335Z,-3.85
2022-12-15T09:07:03.306Z,-3.85
2022-12-15T09:08:06.671Z,-3.86
2022-12-15T09:09:03.342Z,-3.83
2022-12-15T09:10:03.282Z,-3.80
2022-12-15T09:11:03.268Z,-3.80
2022-12-15T09:12:03.278Z,-3.77
2022-12-15T09:13:03.243Z,-3.75
2022-12-15T09:14:03.256Z,-3.74
2022-12-15T09:15:03.230Z,-3.72
2022-12-15T09:16:11.293Z,-3.72
2022-12-15T09:17:04.265Z,-3.70
2022-12-15T09:18:03.203Z,-3.69
2022-12-15T09:19:03.181Z,-3.67
2022-12-15T09:20:03.159Z,-3.64
2022-12-15T09:21:03.155Z,-3.63
2022-12-15T09:22:03.152Z,-3.63
2022-12-15T09:23:03.147Z,-3.59
2022-12-15T09:24:03.108Z,-3.56
2022-12-15T09:25:03.108Z,-3.55
2022-12-15T09:26:03.117Z,-3.52
2022-12-15T09:27:03.135Z,-3.51
2022-12-15T09:28:03.087Z,-3.51
2022-12-15T09:29:03.075Z,-3.48
2022-12-15T09:30:03.058Z,-3.46
2022-12-15T09:31:03.135Z,-3.40
2022-12-15T09:32:03.053Z,-3.34
2022-12-15T09:33:03.065Z,-3.30
2022-12-15T09:34:03.017Z,-3.23
2022-12-15T09:35:03.001Z,-3.19
2022-12-15T09:36:03.006Z,-3.15
2022-12-15T09:37:03.270Z,-3.13
2022-12-15T09:38:02.980Z,-3.15
2022-12-15T09:39:03.031Z,-3.15
2022-12-15T09:40:02.951Z,-3.13
2022-12-15T09:41:02.931Z,-3.16
2022-12-15T09:42:02.928Z,-3.15
2022-12-15T09:43:32.807Z,-3.17
2022-12-15T09:44:03.917Z,-3.17
2022-12-15T09:45:02.963Z,-3.16
2022-12-15T09:46:02.971Z,-3.12
2022-12-15T09:47:02.897Z,-3.09
2022-12-15T09:48:02.865Z,-3.06
2022-12-15T09:49:02.844Z,-3.01
2022-12-15T09:50:02.849Z,-2.98
2022-12-15T09:51:02.847Z,-2.97
2022-12-15T09:52:08.862Z,-2.94
2022-12-15T09:53:04.123Z,-2.94
2022-12-15T09:54:03.303Z,-2.94
2022-12-15T09:55:02.835Z,-2.92
2022-12-15T09:56:02.772Z,-2.89
2022-12-15T09:57:02.769Z,-2.88
2022-12-15T09:58:07.518Z,-2.84
2022-12-15T09:59:03.772Z,-2.80
2022-12-15T10:00:02.778Z,-2.76
2022-12-15T10:01:02.733Z,-2.73
2022-12-15T10:02:02.763Z,-2.71
2022-12-15T10:03:02.806Z,-2.70
2022-12-15T10:04:02.828Z,-2.69
2022-12-15T10:05:02.673Z,-2.65
2022-12-15T10:06:21.511Z,-2.62
2022-12-15T10:07:03.661Z,-2.63
2022-12-15T10:08:02.639Z,-2.62
2022-12-15T10:09:02.629Z,-2.63
2022-12-15T10:10:02.640Z,-2.62
2022-12-15T10:11:02.651Z,-2.60
2022-12-15T10:12:02.630Z,-2.60
2022-12-15T10:13:02.930Z,-2.59
2022-12-15T10:14:02.609Z,-2.58
2022-12-15T10:15:02.572Z,-2.53
2022-12-15T10:16:02.685Z,-2.53
2022-12-15T10:17:02.537Z,-2.52
2022-12-15T10:18:02.810Z,-2.48
2022-12-15T10:19:02.520Z,-2.47
2022-12-15T10:20:02.546Z,-2.47
2022-12-15T10:21:02.504Z,-2.44
2022-12-15T10:22:02.554Z,-2.42
2022-12-15T10:23:02.485Z,-2.42
2022-12-15T10:24:02.529Z,-2.42
2022-12-15T10:25:11.129Z,-2.42
2022-12-15T10:26:03.564Z,-2.47
2022-12-15T10:27:02.440Z,-2.50
2022-12-15T10:28:02.432Z,-2.48
2022-12-15T10:29:02.440Z,-2.50
2022-12-15T10:30:02.501Z,-2.48
2022-12-15T10:31:02.488Z,-2.47
2022-12-15T10:32:02.404Z,-2.45
2022-12-15T10:33:02.392Z,-2.45
2022-12-15T10:34:02.384Z,-2.45
2022-12-15T10:35:02.380Z,-2.44
2022-12-15T10:36:02.375Z,-2.45
2022-12-15T10:37:02.368Z,-2.45
2022-12-15T10:38:02.329Z,-2.45
2022-12-15T10:39:02.319Z,-2.42
2022-12-15T10:40:02.346Z,-2.38
2022-12-15T10:41:02.306Z,-2.34
2022-12-15T10:42:02.309Z,-2.32
2022-12-15T10:43:02.264Z,-2.26
2022-12-15T10:44:02.275Z,-2.25
2022-12-15T10:45:02.246Z,-2.21
2022-12-15T10:46:02.450Z,-2.19
2022-12-15T10:47:02.240Z,-2.16
2022-12-15T10:48:02.251Z,-2.16
2022-12-15T10:49:02.198Z,-2.18
2022-12-15T10:50:02.195Z,-2.18
2022-12-15T10:51:02.187Z,-2.18
2022-12-15T10:52:02.216Z,-2.18
2022-12-15T10:53:02.155Z,-2.19
2022-12-15T10:54:02.155Z,-2.16
2022-12-15T10:55:02.139Z,-2.13
2022-12-15T10:56:02.129Z,-2.13
2022-12-15T10:57:02.116Z,-2.13
2022-12-15T10:58:02.131Z,-2.12
2022-12-15T10:59:02.087Z,-2.08
2022-12-15T11:00:02.086Z,-2.02
2022-12-15T11:01:02.104Z,-2.01
2022-12-15T11:02:02.207Z,-1.97
2022-12-15T11:03:02.291Z,-1.94
2022-12-15T11:04:02.257Z,-1.92
2022-12-15T11:05:02.030Z,-1.92
2022-12-15T11:06:02.968Z,-1.92
2022-12-15T11:07:02.016Z,-1.92
2022-12-15T11:08:02.016Z,-1.92
2022-12-15T11:09:01.992Z,-1.94
2022-12-15T11:10:01.977Z,-1.92
2022-12-15T11:11:07.810Z,-1.94
2022-12-15T11:12:02.979Z,-1.92
2022-12-15T11:13:02.000Z,-1.90
2022-12-15T11:14:01.933Z,-1.90
2022-12-15T11:15:01.914Z,-1.92
2022-12-15T11:16:01.913Z,-1.90
2022-12-15T11:17:01.925Z,-1.89
2022-12-15T11:18:01.919Z,-1.90
2022-12-15T11:19:01.887Z,-1.89
2022-12-15T11:20:03.596Z,-1.89
2022-12-15T11:21:01.863Z,-1.86
2022-12-15T11:22:01.852Z,-1.84
2022-12-15T11:23:01.897Z,-1.83
2022-12-15T11:24:01.865Z,-1.80
2022-12-15T11:25:01.827Z,-1.77
2022-12-15T11:26:06.785Z,-1.77
2022-12-15T11:27:02.812Z,-1.74
2022-12-15T11:28:01.799Z,-1.72
2022-12-15T11:29:01.812Z,-1.68
2022-12-15T11:30:01.771Z,-1.66
2022-12-15T11:31:01.751Z,-1.65
2022-12-15T11:32:06.997Z,-1.64
2022-12-15T11:33:02.722Z,-1.66
2022-12-15T11:34:01.726Z,-1.68
2022-12-15T11:35:01.733Z,-1.69
2022-12-15T11:36:01.751Z,-1.71
2022-12-15T11:37:01.680Z,-1.69
2022-12-15T11:38:01.680Z,-1.71
2022-12-15T11:39:01.791Z,-1.69
2022-12-15T11:40:01.651Z,-1.69
2022-12-15T11:41:01.663Z,-1.71
2022-12-15T11:42:01.664Z,-1.71
2022-12-15T11:43:01.632Z,-1.71
2022-12-15T11:44:06.188Z,-1.71
2022-12-15T11:45:02.629Z,-1.69
2022-12-15T11:46:01.592Z,-1.69
2022-12-15T11:47:01.577Z,-1.71
2022-12-15T11:48:01.605Z,-1.74
2022-12-15T11:49:01.566Z,-1.74
2022-12-15T11:50:02.555Z,-1.71
2022-12-15T11:51:01.536Z,-1.71
2022-12-15T11:52:01.537Z,-1.68
2022-12-15T11:53:01.505Z,-1.66
2022-12-15T11:54:01.520Z,-1.64
2022-12-15T11:55:01.485Z,-1.62
2022-12-15T11:56:01.548Z,-1.59
2022-12-15T11:57:01.462Z,-1.59
2022-12-15T11:58:01.468Z,-1.62
2022-12-15T11:59:01.456Z,-1.62
2022-12-15T12:00:01.436Z,-1.62
2022-12-15T12:01:01.425Z,-1.62
2022-12-15T12:02:03.523Z,-1.62
2022-12-15T12:03:01.453Z,-1.62
2022-12-15T12:04:01.400Z,-1.66
2022-12-15T12:05:01.387Z,-1.64
2022-12-15T12:06:01.376Z,-1.65
2022-12-15T12:07:01.403Z,-1.66
2022-12-15T12:08:01.376Z,-1.66
2022-12-15T12:09:01.354Z,-1.68
2022-12-15T12:10:01.346Z,-1.71
2022-12-15T12:11:01.327Z,-1.72
2022-12-15T12:12:01.346Z,-1.71
2022-12-15T12:13:01.323Z,-1.71
2022-12-15T12:14:02.530Z,-1.65
2022-12-15T12:15:01.264Z,-1.65
2022-12-15T12:16:01.311Z,-1.65
2022-12-15T12:17:01.257Z,-1.65
2022-12-15T12:18:01.250Z,-1.61
2022-12-15T12:19:01.363Z,-1.61
2022-12-15T12:20:03.013Z,-1.56
2022-12-15T12:21:02.215Z,-1.51
2022-12-15T12:22:01.219Z,-1.50
2022-12-15T12:23:01.197Z,-1.48
2022-12-15T12:24:01.199Z,-1.48
2022-12-15T12:25:02.157Z,-1.51
2022-12-15T12:26:03.154Z,-1.53
2022-12-15T12:27:01.151Z,-1.51
2022-12-15T12:28:02.098Z,-1.50
2022-12-15T12:29:01.126Z,-1.48
2022-12-15T12:30:01.135Z,-1.47
2022-12-15T12:31:01.132Z,-1.46
2022-12-15T12:32:04.755Z,-1.44
2022-12-15T12:33:03.444Z,-1.43
2022-12-15T12:34:01.075Z,-1.41
2022-12-15T12:35:31.113Z,-1.43
2022-12-15T12:36:03.039Z,-1.44
2022-12-15T12:37:01.042Z,-1.46
2022-12-15T12:38:04.112Z,-1.47
2022-12-15T12:39:01.917Z,-1.50
2022-12-15T12:40:00.997Z,-1.56
2022-12-15T12:41:00.999Z,-1.62
2022-12-15T12:42:01.008Z,-1.65
2022-12-15T12:43:00.974Z,-1.62
2022-12-15T12:44:01.164Z,-1.62
2022-12-15T12:45:00.949Z,-1.59
2022-12-15T12:46:00.951Z,-1.54
2022-12-15T12:47:00.937Z,-1.47
2022-12-15T12:48:00.928Z,-1.46
2022-12-15T12:49:00.908Z,-1.44
2022-12-15T12:50:00.921Z,-1.44
2022-12-15T12:51:00.900Z,-1.43
2022-12-15T12:52:00.908Z,-1.41